createdAt,value
2018-09-15T00:01:20.101Z,5.30
2018-09-15T00:03:50.867Z,4.33
2018-09-15T00:06:22.581Z,5.33
2018-09-15T00:08:53.013Z,4.80
2018-09-15T00:11:23.959Z,4.83
2018-09-15T00:13:54.405Z,4.83
2018-09-15T00:16:24.854Z,4.90
2018-09-15T00:18:55.570Z,4.60
2018-09-15T00:21:26.048Z,4.90
2018-09-15T00:23:56.416Z,4.60
2018-09-15T00:26:26.825Z,4.60
2018-09-15T00:28:57.186Z,4.70
2018-09-15T00:31:27.639Z,4.57
2018-09-15T00:33:58.075Z,4.63
2018-09-15T00:36:28.505Z,4.87
2018-09-15T00:38:58.963Z,4.70
2018-09-15T00:41:30.008Z,4.50
2018-09-15T00:44:00.409Z,4.77
2018-09-15T00:46:30.858Z,4.67
2018-09-15T00:49:01.365Z,4.63
2018-09-15T00:51:31.740Z,4.17
2018-09-15T00:54:02.274Z,4.10
2018-09-15T00:56:32.744Z,4.17
2018-09-15T00:59:03.159Z,4.10
2018-09-15T01:01:33.796Z,4.13
2018-09-15T01:04:05.089Z,4.30
2018-09-15T01:06:35.452Z,3.93
2018-09-15T01:09:09.264Z,4.50
2018-09-15T01:11:39.691Z,4.40
2018-09-15T01:14:10.180Z,4.00
2018-09-15T01:16:40.585Z,3.80
2018-09-15T01:19:10.983Z,4.17
2018-09-15T01:21:41.420Z,3.97
2018-09-15T01:24:11.898Z,3.97
2018-09-15T01:26:42.299Z,3.47
2018-09-15T01:29:12.683Z,4.00
2018-09-15T01:31:43.128Z,4.10
2018-09-15T01:34:13.558Z,3.53
2018-09-15T01:36:43.915Z,3.37
2018-09-15T01:39:14.313Z,3.80
2018-09-15T01:41:44.716Z,3.70
2018-09-15T01:44:15.120Z,3.33
2018-09-15T01:46:45.530Z,3.60
2018-09-15T01:49:15.936Z,3.90
2018-09-15T01:51:46.351Z,3.37
2018-09-15T01:54:16.769Z,3.63
2018-09-15T01:56:47.188Z,3.70
2018-09-15T01:59:17.611Z,3.40
2018-09-15T02:01:47.978Z,3.27
2018-09-15T02:04:18.443Z,3.53
2018-09-15T02:06:48.840Z,3.40
2018-09-15T02:09:19.328Z,3.37
2018-09-15T02:11:49.675Z,3.60
2018-09-15T02:14:20.637Z,3.47
2018-09-15T02:16:51.073Z,3.43
2018-09-15T02:19:22.565Z,3.33
2018-09-15T02:21:53.014Z,3.10
2018-09-15T02:24:23.369Z,3.23
2018-09-15T02:26:53.756Z,3.50
2018-09-15T02:29:24.213Z,3.70
2018-09-15T02:31:54.621Z,3.50
2018-09-15T02:34:24.952Z,3.10
2018-09-15T02:36:55.384Z,3.03
2018-09-15T02:39:25.823Z,3.20
2018-09-15T02:41:56.298Z,2.93
2018-09-15T02:44:26.646Z,3.10
2018-09-15T02:46:57.141Z,2.87
2018-09-15T02:49:27.546Z,2.80
2018-09-15T02:51:58.008Z,2.83
2018-09-15T02:54:28.405Z,2.73
2018-09-15T02:56:58.861Z,2.70
2018-09-15T02:59:29.282Z,2.57
2018-09-15T03:01:59.740Z,2.77
2018-09-15T03:04:30.136Z,2.40
2018-09-15T03:07:00.603Z,2.47
2018-09-15T03:09:31.028Z,2.50
2018-09-15T03:12:01.431Z,2.70
2018-09-15T03:14:31.855Z,2.20
2018-09-15T03:17:02.241Z,2.30
2018-09-15T03:19:32.700Z,2.27
2018-09-15T03:22:03.130Z,2.47
2018-09-15T03:24:33.588Z,2.47
2018-09-15T03:27:03.999Z,2.17
2018-09-15T03:29:34.421Z,2.13
2018-09-15T03:32:04.884Z,2.13
2018-09-15T03:34:35.329Z,2.00
2018-09-15T03:37:05.668Z,2.03
2018-09-15T03:39:36.392Z,2.10
2018-09-15T03:42:06.874Z,2.30
2018-09-15T03:44:37.316Z,2.10
2018-09-15T03:47:07.724Z,1.93
2018-09-15T03:49:38.285Z,2.50
2018-09-15T03:52:08.681Z,2.00
2018-09-15T03:54:39.211Z,2.37
2018-09-15T03:57:09.597Z,2.40
2018-09-15T03:59:40.005Z,1.90
2018-09-15T04:02:10.352Z,2.27
2018-09-15T04:04:40.730Z,2.20
2018-09-15T04:07:11.110Z,1.83
2018-09-15T04:09:41.509Z,2.00
2018-09-15T04:12:11.923Z,2.30
2018-09-15T04:14:42.269Z,2.10
2018-09-15T04:17:12.707Z,2.13
2018-09-15T04:19:43.107Z,2.20
2018-09-15T04:22:13.585Z,2.37
2018-09-15T04:24:44.017Z,2.30
2018-09-15T04:27:15.039Z,2.30
2018-09-15T04:29:45.483Z,2.00
2018-09-15T04:32:15.867Z,2.27
2018-09-15T04:34:46.217Z,2.47
2018-09-15T04:37:16.650Z,2.67
2018-09-15T04:39:47.053Z,2.60
2018-09-15T04:42:17.533Z,2.13
2018-09-15T04:44:47.964Z,2.30
2018-09-15T04:47:18.406Z,2.40
2018-09-15T04:49:48.779Z,2.10
2018-09-15T04:52:19.367Z,2.13
2018-09-15T04:54:49.720Z,2.20
2018-09-15T04:57:20.276Z,2.33
2018-09-15T04:59:51.363Z,2.40
2018-09-15T05:02:21.700Z,2.30
2018-09-15T05:04:52.172Z,2.60
2018-09-15T05:07:22.628Z,2.50
2018-09-15T05:09:53.057Z,2.63
2018-09-15T05:12:23.532Z,2.43
2018-09-15T05:14:53.944Z,2.73
2018-09-15T05:17:24.355Z,2.57
2018-09-15T05:19:54.782Z,2.70
2018-09-15T05:22:25.139Z,3.00
2018-09-15T05:24:55.558Z,2.63
2018-09-15T05:27:25.936Z,2.53
2018-09-15T05:29:56.573Z,2.93
2018-09-15T05:32:27.872Z,2.70
2018-09-15T05:34:58.549Z,2.53
2018-09-15T05:37:30.421Z,2.60
2018-09-15T05:40:02.002Z,3.07
2018-09-15T05:42:32.394Z,2.53
2018-09-15T05:45:02.923Z,3.33
2018-09-15T05:47:35.047Z,3.23
2018-09-15T05:50:05.715Z,2.90
2018-09-15T05:52:36.053Z,2.80
2018-09-15T05:55:07.176Z,2.50
2018-09-15T05:57:37.631Z,2.83
2018-09-15T06:00:08.159Z,2.73
2018-09-15T06:02:38.608Z,2.97
2018-09-15T06:05:10.838Z,2.63
2018-09-15T06:07:41.330Z,2.73
2018-09-15T06:10:11.634Z,2.73
2018-09-15T06:12:42.084Z,3.00
2018-09-15T06:15:12.423Z,2.80
2018-09-15T06:17:42.897Z,2.93
2018-09-15T06:20:13.315Z,3.10
2018-09-15T06:22:43.754Z,2.80
2018-09-15T06:25:14.255Z,2.93
2018-09-15T06:27:44.704Z,3.10
2018-09-15T06:30:15.068Z,3.60
2018-09-15T06:32:45.611Z,2.80
2018-09-15T06:35:16.137Z,2.77
2018-09-15T06:37:46.771Z,2.73
2018-09-15T06:40:17.274Z,3.00
2018-09-15T06:42:47.785Z,2.90
2018-09-15T06:45:18.311Z,3.10
2018-09-15T06:47:48.665Z,3.00
2018-09-15T06:50:19.073Z,3.07
2018-09-15T06:52:49.501Z,3.20
2018-09-15T06:55:20.412Z,2.73
2018-09-15T06:57:50.769Z,3.10
2018-09-15T07:00:21.328Z,3.00
2018-09-15T07:02:51.712Z,3.40
2018-09-15T07:05:22.057Z,3.33
2018-09-15T07:07:52.575Z,2.73
2018-09-15T07:10:23.028Z,3.03
2018-09-15T07:12:53.606Z,3.00
2018-09-15T07:15:24.007Z,3.20
2018-09-15T07:17:54.656Z,3.07
2018-09-15T07:20:25.074Z,2.93
2018-09-15T07:22:55.471Z,3.20
2018-09-15T07:25:25.932Z,2.80
2018-09-15T07:27:56.362Z,3.07
2018-09-15T07:30:26.722Z,3.33
2018-09-15T07:32:57.141Z,2.80
2018-09-15T07:35:27.597Z,3.33
2018-09-15T07:37:57.956Z,3.20
2018-09-15T07:40:28.407Z,3.30
2018-09-15T07:42:59.826Z,3.10
2018-09-15T07:45:31.305Z,2.90
2018-09-15T07:48:02.132Z,3.03
2018-09-15T07:50:32.564Z,2.97
2018-09-15T07:53:03.100Z,2.67
2018-09-15T07:55:33.491Z,2.40
2018-09-15T07:58:03.979Z,2.77
2018-09-15T08:00:34.391Z,2.80
2018-09-15T08:03:06.912Z,3.03
2018-09-15T08:05:37.300Z,3.40
2018-09-15T08:08:07.804Z,3.67
2018-09-15T08:10:38.130Z,3.27
2018-09-15T08:13:08.514Z,3.20
2018-09-15T08:15:38.991Z,3.07
2018-09-15T08:18:09.295Z,2.90
2018-09-15T08:20:39.698Z,2.40
2018-09-15T08:23:14.660Z,2.53
2018-09-15T08:25:45.037Z,2.90
2018-09-15T08:28:15.393Z,2.90
2018-09-15T08:30:45.767Z,2.43
2018-09-15T08:33:16.214Z,2.43
2018-09-15T08:35:46.874Z,2.50
2018-09-15T08:38:17.219Z,2.70
2018-09-15T08:40:47.668Z,3.07
2018-09-15T08:43:18.159Z,2.53
2018-09-15T08:45:50.661Z,3.07
2018-09-15T08:48:21.051Z,2.77
2018-09-15T08:50:51.533Z,2.70
2018-09-15T08:53:21.923Z,2.97
2018-09-15T08:58:50.017Z,2.40
2018-09-15T09:01:20.471Z,3.33
2018-09-15T09:03:50.895Z,3.20
2018-09-15T09:06:21.344Z,2.90
2018-09-15T09:08:51.721Z,3.17
2018-09-15T09:11:22.095Z,3.50
2018-09-15T09:13:52.581Z,3.43
2018-09-15T09:16:22.928Z,4.63
2018-09-15T09:18:53.427Z,3.93
2018-09-15T09:21:23.853Z,4.60
2018-09-15T09:23:54.329Z,4.20
2018-09-15T09:26:24.842Z,3.90
2018-09-15T09:28:55.242Z,4.60
2018-09-15T09:31:25.672Z,4.73
2018-09-15T09:33:56.129Z,5.73
2018-09-15T09:36:26.475Z,5.40
2018-09-15T09:38:56.880Z,5.23
2018-09-15T09:41:27.336Z,5.40
2018-09-15T09:43:57.789Z,5.60
2018-09-15T09:46:28.205Z,5.40
2018-09-15T09:48:58.690Z,5.63
2018-09-15T09:51:29.124Z,6.23
2018-09-15T09:53:59.551Z,6.47
2018-09-15T09:56:29.968Z,6.33
2018-09-15T09:59:00.453Z,7.07
2018-09-15T10:02:33.806Z,6.17
2018-09-15T10:05:04.242Z,6.50
2018-09-15T10:07:34.683Z,6.83
2018-09-15T10:10:05.197Z,7.23
2018-09-15T10:12:35.570Z,6.87
2018-09-15T10:15:06.044Z,5.50
2018-09-15T10:17:36.426Z,5.80
2018-09-15T10:20:07.166Z,5.43
2018-09-15T10:22:37.592Z,5.43
2018-09-15T10:25:08.267Z,5.00
2018-09-15T10:27:38.724Z,5.13
2018-09-15T10:30:09.149Z,4.00
2018-09-15T10:32:39.559Z,4.20
2018-09-15T10:35:09.983Z,4.20
2018-09-15T10:37:40.981Z,4.00
2018-09-15T10:40:11.378Z,3.80
2018-09-15T10:42:41.844Z,3.87
2018-09-15T10:45:12.625Z,4.30
2018-09-15T10:47:43.058Z,4.07
2018-09-15T10:50:13.465Z,4.57
2018-09-15T10:52:43.921Z,3.87
2018-09-15T10:55:14.305Z,3.70
2018-09-15T10:57:44.698Z,4.03
2018-09-15T11:00:15.173Z,3.10
2018-09-15T11:02:45.512Z,2.80
2018-09-15T11:05:15.895Z,2.90
2018-09-15T11:07:46.241Z,3.10
2018-09-15T11:10:16.647Z,2.37
2018-09-15T11:12:47.013Z,2.23
2018-09-15T11:15:17.410Z,2.23
2018-09-15T11:17:47.936Z,2.10
2018-09-15T11:20:18.385Z,2.07
2018-09-15T11:22:48.821Z,1.63
2018-09-15T11:25:19.289Z,1.90
2018-09-15T11:27:49.709Z,2.00
2018-09-15T11:30:20.122Z,1.70
2018-09-15T11:32:50.391Z,2.20
2018-09-15T11:35:20.760Z,1.37
2018-09-15T11:37:51.221Z,1.70
2018-09-15T11:40:21.563Z,1.60
2018-09-15T11:42:51.978Z,1.50
2018-09-15T11:45:22.351Z,1.53
2018-09-15T11:47:52.733Z,1.43
2018-09-15T11:50:23.096Z,1.20
2018-09-15T11:52:53.495Z,1.43
2018-09-15T11:55:23.922Z,1.30
2018-09-15T11:57:54.292Z,1.70
2018-09-15T12:00:29.357Z,1.50
2018-09-15T12:02:59.865Z,1.43
2018-09-15T12:05:30.199Z,1.60
2018-09-15T12:08:00.859Z,1.50
2018-09-15T12:10:31.213Z,1.70
2018-09-15T12:13:01.726Z,2.00
2018-09-15T12:15:32.060Z,1.77
2018-09-15T12:18:02.448Z,1.77
2018-09-15T12:20:32.831Z,1.60
2018-09-15T12:23:03.173Z,1.60
2018-09-15T12:25:34.356Z,1.70
2018-09-15T12:28:05.088Z,1.80
2018-09-15T12:30:35.907Z,1.60
2018-09-15T12:33:06.741Z,2.40
2018-09-15T12:35:37.447Z,2.73
2018-09-15T12:38:08.184Z,2.40
2018-09-15T12:40:39.018Z,2.50
2018-09-15T12:43:09.763Z,2.30
2018-09-15T12:45:40.487Z,2.20
2018-09-15T12:48:11.250Z,2.67
2018-09-15T12:50:41.950Z,2.47
2018-09-15T12:53:12.648Z,2.30
2018-09-15T12:55:43.292Z,2.13
2018-09-15T12:58:14.024Z,2.33
2018-09-15T13:00:44.833Z,2.27
2018-09-15T13:03:15.609Z,2.13
2018-09-15T13:05:46.339Z,2.00
2018-09-15T13:08:17.085Z,2.80
2018-09-15T13:10:47.855Z,2.50
2018-09-15T13:13:18.517Z,2.50
2018-09-15T13:15:49.335Z,2.10
2018-09-15T13:18:20.266Z,2.20
2018-09-15T13:20:51.115Z,2.10
2018-09-15T13:23:22.098Z,1.83
2018-09-15T13:25:52.827Z,1.80
2018-09-15T13:28:23.604Z,1.90
2018-09-15T13:30:54.410Z,1.40
2018-09-15T13:33:25.071Z,1.37
2018-09-15T13:35:55.860Z,1.67
2018-09-15T13:38:26.645Z,1.30
2018-09-15T13:40:57.453Z,1.40
2018-09-15T13:43:28.170Z,1.70
2018-09-15T13:45:58.955Z,1.20
2018-09-15T13:48:29.669Z,1.63
2018-09-15T13:51:00.707Z,1.83
2018-09-15T13:53:31.635Z,1.93
2018-09-15T13:56:02.438Z,1.73
2018-09-15T13:58:33.348Z,1.87
2018-09-15T14:01:04.117Z,1.90
2018-09-15T14:03:35.032Z,1.70
2018-09-15T14:06:05.842Z,1.90
2018-09-15T14:08:36.655Z,1.73
2018-09-15T14:11:07.497Z,1.90
2018-09-15T14:13:38.426Z,1.97
2018-09-15T14:16:09.164Z,1.90
2018-09-15T14:18:39.931Z,2.00
2018-09-15T14:21:10.667Z,1.90
2018-09-15T14:23:41.480Z,1.97
2018-09-15T14:26:12.295Z,2.00
2018-09-15T14:28:43.089Z,2.00
2018-09-15T14:31:13.909Z,1.83
2018-09-15T14:33:44.689Z,2.00
2018-09-15T14:36:15.494Z,2.17
2018-09-15T14:38:46.467Z,1.97
2018-09-15T14:41:17.177Z,2.00
2018-09-15T14:43:47.900Z,2.00
2018-09-15T14:46:18.605Z,1.77
2018-09-15T14:48:49.529Z,1.90
2018-09-15T14:51:20.342Z,2.13
2018-09-15T14:53:51.077Z,2.10
2018-09-15T14:56:22.095Z,2.00
2018-09-15T14:58:52.971Z,2.13
2018-09-15T15:01:23.843Z,1.87
2018-09-15T15:03:54.563Z,2.00
2018-09-15T15:06:25.261Z,2.47
2018-09-15T15:08:55.971Z,1.97
2018-09-15T15:11:26.716Z,1.70
2018-09-15T15:13:57.428Z,2.10
2018-09-15T15:16:28.168Z,2.10
2018-09-15T15:18:58.825Z,1.90
2018-09-15T15:21:29.585Z,2.60
2018-09-15T15:24:00.340Z,2.40
2018-09-15T15:26:31.083Z,1.90
2018-09-15T15:29:02.009Z,2.40
2018-09-15T15:31:32.699Z,2.03
2018-09-15T15:34:03.456Z,2.53
2018-09-15T15:36:34.225Z,2.50
2018-09-15T15:39:06.637Z,2.53
2018-09-15T15:41:37.347Z,2.70
2018-09-15T15:44:08.184Z,2.30
2018-09-15T15:46:39.149Z,2.40
2018-09-15T15:49:09.881Z,2.40
2018-09-15T15:51:40.664Z,2.13
2018-09-15T15:54:11.352Z,4.40
2018-09-15T15:56:42.080Z,2.93
2018-09-15T15:59:12.847Z,2.70
2018-09-15T16:01:43.626Z,2.67
2018-09-15T16:04:14.341Z,2.13
2018-09-15T16:06:45.056Z,2.20
2018-09-15T16:09:15.753Z,2.57
2018-09-15T16:11:46.477Z,2.03
2018-09-15T16:14:17.202Z,2.30
2018-09-15T16:16:47.897Z,2.33
2018-09-15T16:19:18.642Z,2.10
2018-09-15T16:21:49.332Z,2.17
2018-09-15T16:24:20.066Z,2.10
2018-09-15T16:26:50.730Z,2.10
2018-09-15T16:29:21.464Z,2.10
2018-09-15T16:31:52.205Z,2.37
2018-09-15T16:34:22.917Z,2.10
2018-09-15T16:36:53.633Z,2.23
2018-09-15T16:39:24.377Z,2.17
2018-09-15T16:41:55.099Z,2.40
2018-09-15T16:44:25.883Z,2.30
2018-09-15T16:46:56.548Z,2.17
2018-09-15T16:49:27.256Z,2.23
2018-09-15T16:51:58.001Z,2.33
2018-09-15T16:54:28.651Z,2.10
2018-09-15T16:56:59.510Z,2.10
2018-09-15T16:59:30.157Z,2.73
2018-09-15T17:02:00.853Z,3.13
2018-09-15T17:04:31.566Z,2.47
2018-09-15T17:07:02.390Z,2.20
2018-09-15T17:09:33.196Z,3.00
2018-09-15T17:12:03.968Z,2.83
2018-09-15T17:14:34.783Z,3.20
2018-09-15T17:17:05.573Z,3.00
2018-09-15T17:19:36.783Z,2.90
2018-09-15T17:22:07.466Z,3.07
2018-09-15T17:24:38.173Z,2.53
2018-09-15T17:27:09.077Z,2.47
2018-09-15T17:29:39.753Z,2.60
2018-09-15T17:32:11.537Z,2.60
2018-09-15T17:34:42.314Z,2.40
2018-09-15T17:37:13.033Z,2.00
2018-09-15T17:39:43.774Z,3.50
2018-09-15T17:42:14.451Z,3.57
2018-09-15T17:44:45.127Z,3.50
2018-09-15T17:47:15.864Z,2.30
2018-09-15T17:49:46.604Z,2.23
2018-09-15T17:52:17.345Z,2.77
2018-09-15T17:54:48.102Z,2.73
2018-09-15T17:57:18.787Z,2.60
2018-09-15T17:59:49.464Z,2.50
2018-09-15T18:02:20.211Z,2.80
2018-09-15T18:04:51.004Z,4.60
2018-09-15T18:07:21.674Z,4.30
2018-09-15T18:09:52.362Z,3.70
2018-09-15T18:12:23.205Z,3.03
2018-09-15T18:14:53.912Z,3.20
2018-09-15T18:17:24.824Z,2.67
2018-09-15T18:19:55.477Z,2.97
2018-09-15T18:22:27.088Z,2.77
2018-09-15T18:24:57.764Z,3.03
2018-09-15T18:27:28.484Z,2.83
2018-09-15T18:29:59.314Z,2.90
2018-09-15T18:32:30.301Z,2.90
2018-09-15T18:35:00.969Z,2.80
2018-09-15T18:37:31.820Z,3.00
2018-09-15T18:40:02.443Z,3.30
2018-09-15T18:42:33.198Z,2.93
2018-09-15T18:45:03.932Z,3.23
2018-09-15T18:47:34.682Z,3.40
2018-09-15T18:50:05.458Z,3.10
2018-09-15T18:52:36.199Z,3.43
2018-09-15T18:55:06.915Z,3.63
2018-09-15T18:57:37.612Z,3.70
2018-09-15T19:00:08.385Z,3.70
2018-09-15T19:02:39.116Z,4.10
2018-09-15T19:05:09.893Z,3.70
2018-09-15T19:07:40.635Z,3.30
2018-09-15T19:10:11.280Z,3.50
2018-09-15T19:12:41.953Z,3.60
2018-09-15T19:15:12.619Z,4.10
2018-09-15T19:17:43.323Z,4.43
2018-09-15T19:20:14.215Z,3.50
2018-09-15T19:22:44.867Z,4.00
2018-09-15T19:25:15.520Z,4.03
2018-09-15T19:27:46.255Z,4.30
2018-09-15T19:30:17.608Z,4.30
2018-09-15T19:32:48.311Z,4.20
2018-09-15T19:35:18.925Z,4.13
2018-09-15T19:37:49.635Z,3.80
2018-09-15T19:40:20.363Z,4.23
2018-09-15T19:42:51.017Z,4.03
2018-09-15T19:45:21.727Z,3.83
2018-09-15T19:47:52.458Z,4.00
2018-09-15T19:50:23.142Z,4.03
2018-09-15T19:52:53.839Z,3.93
2018-09-15T19:55:24.539Z,3.53
2018-09-15T19:57:55.263Z,4.20
2018-09-15T20:00:25.930Z,4.07
2018-09-15T20:02:56.562Z,3.70
2018-09-15T20:05:27.223Z,3.80
2018-09-15T20:07:57.924Z,3.93
2018-09-15T20:10:28.613Z,4.00
2018-09-15T20:12:59.330Z,4.43
2018-09-15T20:15:30.320Z,4.13
2018-09-15T20:17:59.713Z,4.00
2018-09-15T20:20:28.600Z,4.03
2018-09-15T20:22:59.279Z,4.00
2018-09-15T20:25:30.004Z,4.20
2018-09-15T20:28:00.735Z,4.20
2018-09-15T20:30:31.444Z,6.63
2018-09-15T20:33:02.247Z,6.60
2018-09-15T20:35:32.851Z,5.73
2018-09-15T20:38:03.451Z,5.93
2018-09-15T20:40:34.200Z,5.80
2018-09-15T20:43:04.849Z,5.67
2018-09-15T20:45:35.527Z,6.43
2018-09-15T20:48:06.311Z,5.50
2018-09-15T20:50:36.984Z,5.63
2018-09-15T20:53:07.688Z,5.30
2018-09-15T20:55:38.356Z,5.33
2018-09-15T20:58:09.072Z,5.90
2018-09-15T21:00:39.779Z,5.77
2018-09-15T21:03:10.494Z,6.00
2018-09-15T21:05:41.171Z,5.67
2018-09-15T21:08:11.892Z,6.17
2018-09-15T21:10:42.577Z,5.97
2018-09-15T21:13:13.301Z,5.80
2018-09-15T21:15:44.036Z,5.20
2018-09-15T21:18:14.882Z,5.57
2018-09-15T21:20:45.642Z,6.03
2018-09-15T21:23:16.308Z,5.90
2018-09-15T21:25:46.989Z,6.27
2018-09-15T21:28:17.840Z,6.60
2018-09-15T21:30:48.529Z,5.83
2018-09-15T21:33:19.285Z,5.93
2018-09-15T21:35:50.011Z,6.63
2018-09-15T21:38:20.901Z,6.10
2018-09-15T21:40:51.629Z,5.47
2018-09-15T21:43:22.348Z,5.27
2018-09-15T21:45:53.018Z,5.47
2018-09-15T21:48:23.987Z,6.30
2018-09-15T21:50:54.703Z,6.30
2018-09-15T21:53:25.566Z,6.10
2018-09-15T21:55:56.252Z,6.27
2018-09-15T21:58:26.856Z,6.37
2018-09-15T22:01:02.677Z,6.50
2018-09-15T22:04:36.184Z,6.60
2018-09-15T22:07:06.963Z,5.87
2018-09-15T22:09:37.644Z,5.80
2018-09-15T22:12:08.412Z,5.73
2018-09-15T22:14:39.839Z,5.80
2018-09-15T22:17:10.579Z,5.90
2018-09-15T22:19:41.259Z,5.90
2018-09-15T22:22:12.081Z,5.43
2018-09-15T22:24:42.810Z,5.43
2018-09-15T22:27:13.582Z,5.77
2018-09-15T22:29:44.268Z,6.30
2018-09-15T22:32:15.005Z,5.60
2018-09-15T22:34:45.633Z,5.97
2018-09-15T22:37:16.335Z,5.80
2018-09-15T22:39:47.008Z,4.93
2018-09-15T22:42:17.859Z,5.60
2018-09-15T22:44:48.468Z,5.73
2018-09-15T22:47:19.227Z,5.10
2018-09-15T22:49:49.896Z,5.50
2018-09-15T22:52:20.660Z,5.10
2018-09-15T22:54:51.353Z,5.80
2018-09-15T22:57:22.056Z,5.90
2018-09-15T22:59:52.740Z,6.30
2018-09-15T23:02:23.474Z,5.57
2018-09-15T23:04:54.154Z,5.77
2018-09-15T23:07:24.844Z,5.70
2018-09-15T23:09:56.007Z,6.00
2018-09-15T23:12:26.695Z,6.03
2018-09-15T23:14:57.473Z,6.20
2018-09-15T23:17:28.152Z,5.90
2018-09-15T23:19:59.677Z,6.10
2018-09-15T23:22:30.414Z,5.97
2018-09-15T23:25:01.217Z,5.77
2018-09-15T23:27:31.931Z,6.27
2018-09-15T23:30:02.722Z,5.87
2018-09-15T23:32:33.427Z,5.97
2018-09-15T23:35:04.138Z,5.63
2018-09-15T23:37:34.786Z,5.63
2018-09-15T23:40:05.603Z,5.67
2018-09-15T23:42:36.349Z,5.83
2018-09-15T23:45:07.067Z,6.20
2018-09-15T23:47:37.755Z,5.63
2018-09-15T23:50:08.431Z,5.50
2018-09-15T23:52:39.160Z,5.83
2018-09-15T23:55:09.930Z,5.63
2018-09-15T23:57:40.666Z,5.67
